sensor_id;sensor_type;location;lat;lon;timestamp;P1;P2;P0
75960;PMS7003;64644;48.914;2.254;2022-12-19T00:03:45;31.75;24.00;14.00
75960;PMS7003;64644;48.914;2.254;2022-12-19T00:06:16;20.50;17.50;14.00
75960;PMS7003;64644;48.914;2.254;2022-12-19T00:08:44;21.50;20.00;14.25
75960;PMS7003;64644;48.914;2.254;2022-12-19T00:11:11;20.25;18.50;14.50
75960;PMS7003;64644;48.914;2.254;2022-12-19T00:13:38;22.25;20.25;14.50
75960;PMS7003;64644;48.914;2.254;2022-12-19T00:16:09;23.50;20.25;15.00
75960;PMS7003;64644;48.914;2.254;2022-12-19T00:18:38;23.00;20.75;13.25
75960;PMS7003;64644;48.914;2.254;2022-12-19T00:21:04;22.00;20.75;12.25
75960;PMS7003;64644;48.914;2.254;2022-12-19T00:23:31;22.75;20.00;14.00
75960;PMS7003;64644;48.914;2.254;2022-12-19T00:28:35;20.75;20.75;14.75
75960;PMS7003;64644;48.914;2.254;2022-12-19T00:31:01;21.25;20.00;15.25
75960;PMS7003;64644;48.914;2.254;2022-12-19T00:33:27;25.25;24.50;17.75
75960;PMS7003;64644;48.914;2.254;2022-12-19T00:35:57;22.50;19.25;14.75
75960;PMS7003;64644;48.914;2.254;2022-12-19T00:38:23;23.50;19.50;14.75
75960;PMS7003;64644;48.914;2.254;2022-12-19T00:40:48;17.00;15.50;11.00
75960;PMS7003;64644;48.914;2.254;2022-12-19T00:43:14;20.75;19.25;14.00
75960;PMS7003;64644;48.914;2.254;2022-12-19T00:45:39;26.25;25.00;17.00
75960;PMS7003;64644;48.914;2.254;2022-12-19T00:48:04;18.75;17.50;11.50
75960;PMS7003;64644;48.914;2.254;2022-12-19T00:50:30;18.00;16.50;14.00
75960;PMS7003;64644;48.914;2.254;2022-12-19T00:52:55;19.50;19.00;14.00
75960;PMS7003;64644;48.914;2.254;2022-12-19T00:55:21;24.75;21.00;15.00
75960;PMS7003;64644;48.914;2.254;2022-12-19T00:57:46;18.25;17.75;9.25
75960;PMS7003;64644;48.914;2.254;2022-12-19T01:00:12;18.50;18.00;11.25
75960;PMS7003;64644;48.914;2.254;2022-12-19T01:02:38;18.00;17.75;13.75
75960;PMS7003;64644;48.914;2.254;2022-12-19T01:05:03;21.50;17.50;12.00
75960;PMS7003;64644;48.914;2.254;2022-12-19T01:07:29;26.25;22.50;14.00
75960;PMS7003;64644;48.914;2.254;2022-12-19T01:09:54;22.25;19.25;12.25
75960;PMS7003;64644;48.914;2.254;2022-12-19T01:12:20;19.00;18.00;13.50
75960;PMS7003;64644;48.914;2.254;2022-12-19T01:15:04;17.50;17.50;11.50
75960;PMS7003;64644;48.914;2.254;2022-12-19T01:17:29;18.50;18.00;11.25
75960;PMS7003;64644;48.914;2.254;2022-12-19T01:19:55;16.00;14.00;11.00
75960;PMS7003;64644;48.914;2.254;2022-12-19T01:22:20;17.75;17.25;11.00
75960;PMS7003;64644;48.914;2.254;2022-12-19T01:24:45;18.50;15.00;10.50
75960;PMS7003;64644;48.914;2.254;2022-12-19T01:27:11;18.00;14.75;10.75
75960;PMS7003;64644;48.914;2.254;2022-12-19T01:29:36;17.25;17.25;11.00
75960;PMS7003;64644;48.914;2.254;2022-12-19T01:32:02;18.75;16.50;11.75
75960;PMS7003;64644;48.914;2.254;2022-12-19T01:34:27;16.75;16.00;11.00
75960;PMS7003;64644;48.914;2.254;2022-12-19T01:36:53;14.75;14.25;11.25
75960;PMS7003;64644;48.914;2.254;2022-12-19T01:39:18;17.50;16.75;12.00
75960;PMS7003;64644;48.914;2.254;2022-12-19T01:41:43;17.00;15.00;12.00
75960;PMS7003;64644;48.914;2.254;2022-12-19T01:44:09;17.50;17.50;12.50
75960;PMS7003;64644;48.914;2.254;2022-12-19T01:46:47;14.75;14.00;8.00
75960;PMS7003;64644;48.914;2.254;2022-12-19T01:51:54;24.75;19.25;11.25
75960;PMS7003;64644;48.914;2.254;2022-12-19T01:54:24;15.00;15.00;12.00
75960;PMS7003;64644;48.914;2.254;2022-12-19T01:56:54;14.25;14.25;9.75
75960;PMS7003;64644;48.914;2.254;2022-12-19T01:59:23;18.75;15.25;13.50
75960;PMS7003;64644;48.914;2.254;2022-12-19T02:01:53;15.00;12.75;9.75
75960;PMS7003;64644;48.914;2.254;2022-12-19T02:04:24;16.25;16.25;11.75
75960;PMS7003;64644;48.914;2.254;2022-12-19T02:06:54;12.00;10.50;8.00
75960;PMS7003;64644;48.914;2.254;2022-12-19T02:09:22;15.25;15.00;11.75
75960;PMS7003;64644;48.914;2.254;2022-12-19T02:11:48;21.00;16.25;9.00
75960;PMS7003;64644;48.914;2.254;2022-12-19T02:14:13;14.25;14.25;11.00
75960;PMS7003;64644;48.914;2.254;2022-12-19T02:25:31;14.25;13.75;8.50
75960;PMS7003;64644;48.914;2.254;2022-12-19T02:28:19;15.50;12.25;8.75
75960;PMS7003;64644;48.914;2.254;2022-12-19T02:31:06;16.75;16.75;11.75
75960;PMS7003;64644;48.914;2.254;2022-12-19T02:36:39;14.00;14.00;12.00
75960;PMS7003;64644;48.914;2.254;2022-12-19T02:39:13;12.00;12.00;9.00
75960;PMS7003;64644;48.914;2.254;2022-12-19T02:41:46;14.50;14.50;11.50
75960;PMS7003;64644;48.914;2.254;2022-12-19T02:47:03;14.25;11.25;8.25
75960;PMS7003;64644;48.914;2.254;2022-12-19T02:49:34;14.00;11.50;8.25
75960;PMS7003;64644;48.914;2.254;2022-12-19T02:54:44;14.75;14.25;9.00
75960;PMS7003;64644;48.914;2.254;2022-12-19T03:02:43;14.25;11.50;9.00
75960;PMS7003;64644;48.914;2.254;2022-12-19T03:07:54;14.50;11.25;8.50
75960;PMS7003;64644;48.914;2.254;2022-12-19T03:10:44;8.25;8.25;7.00
75960;PMS7003;64644;48.914;2.254;2022-12-19T03:13:20;16.00;13.50;8.25
75960;PMS7003;64644;48.914;2.254;2022-12-19T03:15:50;13.00;13.00;10.00
75960;PMS7003;64644;48.914;2.254;2022-12-19T03:18:16;13.25;13.25;10.00
75960;PMS7003;64644;48.914;2.254;2022-12-19T03:23:38;15.00;12.00;9.00
75960;PMS7003;64644;48.914;2.254;2022-12-19T03:26:15;13.50;12.00;8.75
75960;PMS7003;64644;48.914;2.254;2022-12-19T03:31:11;14.50;12.50;8.75
75960;PMS7003;64644;48.914;2.254;2022-12-19T03:33:40;15.75;12.25;9.00
75960;PMS7003;64644;48.914;2.254;2022-12-19T03:36:09;13.00;11.50;9.00
75960;PMS7003;64644;48.914;2.254;2022-12-19T03:38:39;12.25;12.25;8.00
75960;PMS7003;64644;48.914;2.254;2022-12-19T03:41:09;14.00;11.00;8.75
75960;PMS7003;64644;48.914;2.254;2022-12-19T03:43:38;12.00;11.75;9.00
75960;PMS7003;64644;48.914;2.254;2022-12-19T03:46:23;13.50;13.50;9.00
75960;PMS7003;64644;48.914;2.254;2022-12-19T03:48:51;11.50;11.50;9.00
75960;PMS7003;64644;48.914;2.254;2022-12-19T03:51:28;13.25;11.00;8.00
75960;PMS7003;64644;48.914;2.254;2022-12-19T03:54:04;13.25;13.25;8.75
75960;PMS7003;64644;48.914;2.254;2022-12-19T03:56:33;15.00;13.25;9.00
75960;PMS7003;64644;48.914;2.254;2022-12-19T04:01:59;14.25;10.50;7.50
75960;PMS7003;64644;48.914;2.254;2022-12-19T04:04:26;12.25;11.25;6.25
75960;PMS7003;64644;48.914;2.254;2022-12-19T04:06:53;13.75;13.75;10.00
75960;PMS7003;64644;48.914;2.254;2022-12-19T04:09:21;13.00;12.25;9.00
75960;PMS7003;64644;48.914;2.254;2022-12-19T04:11:50;15.50;15.50;10.25
75960;PMS7003;64644;48.914;2.254;2022-12-19T04:14:24;14.75;13.75;9.00
75960;PMS7003;64644;48.914;2.254;2022-12-19T04:22:28;10.00;10.00;7.50
75960;PMS7003;64644;48.914;2.254;2022-12-19T04:25:17;15.00;11.75;8.00
75960;PMS7003;64644;48.914;2.254;2022-12-19T04:27:54;11.50;11.50;8.00
75960;PMS7003;64644;48.914;2.254;2022-12-19T04:30:23;11.25;11.00;9.00
75960;PMS7003;64644;48.914;2.254;2022-12-19T04:32:48;12.25;12.25;9.00
75960;PMS7003;64644;48.914;2.254;2022-12-19T04:35:14;14.00;13.00;9.00
75960;PMS7003;64644;48.914;2.254;2022-12-19T04:37:39;16.75;15.25;11.00
75960;PMS7003;64644;48.914;2.254;2022-12-19T04:40:05;12.50;12.50;8.00
75960;PMS7003;64644;48.914;2.254;2022-12-19T04:42:32;12.50;11.00;8.50
75960;PMS7003;64644;48.914;2.254;2022-12-19T04:44:57;17.75;11.00;8.25
75960;PMS7003;64644;48.914;2.254;2022-12-19T04:47:23;14.50;11.00;8.00
75960;PMS7003;64644;48.914;2.254;2022-12-19T04:49:48;11.00;10.50;7.25
75960;PMS7003;64644;48.914;2.254;2022-12-19T04:52:14;13.75;13.25;10.00
75960;PMS7003;64644;48.914;2.254;2022-12-19T04:54:39;12.00;12.00;8.00
75960;PMS7003;64644;48.914;2.254;2022-12-19T04:57:05;13.75;12.00;8.00
75960;PMS7003;64644;48.914;2.254;2022-12-19T04:59:30;11.00;11.00;9.00
75960;PMS7003;64644;48.914;2.254;2022-12-19T05:01:56;16.75;14.25;8.75
75960;PMS7003;64644;48.914;2.254;2022-12-19T05:04:23;14.00;11.25;8.25
75960;PMS7003;64644;48.914;2.254;2022-12-19T05:06:49;13.50;13.50;9.00
75960;PMS7003;64644;48.914;2.254;2022-12-19T05:09:14;14.25;11.75;9.00
75960;PMS7003;64644;48.914;2.254;2022-12-19T05:11:40;19.00;18.00;11.50
75960;PMS7003;64644;48.914;2.254;2022-12-19T05:14:05;16.75;11.00;8.50
75960;PMS7003;64644;48.914;2.254;2022-12-19T05:16:31;12.50;12.25;10.50
75960;PMS7003;64644;48.914;2.254;2022-12-19T05:18:56;19.00;14.50;8.75
75960;PMS7003;64644;48.914;2.254;2022-12-19T05:21:22;11.50;11.50;7.50
75960;PMS7003;64644;48.914;2.254;2022-12-19T05:23:47;11.50;9.50;8.25
75960;PMS7003;64644;48.914;2.254;2022-12-19T05:26:13;11.75;11.75;8.25
75960;PMS7003;64644;48.914;2.254;2022-12-19T05:28:39;13.50;12.00;8.00
75960;PMS7003;64644;48.914;2.254;2022-12-19T05:31:07;12.75;11.50;8.00
75960;PMS7003;64644;48.914;2.254;2022-12-19T05:33:40;12.00;11.50;9.00
75960;PMS7003;64644;48.914;2.254;2022-12-19T05:36:06;14.50;12.75;9.75
75960;PMS7003;64644;48.914;2.254;2022-12-19T05:38:33;11.00;10.50;8.75
75960;PMS7003;64644;48.914;2.254;2022-12-19T05:40:58;15.00;13.25;7.00
75960;PMS7003;64644;48.914;2.254;2022-12-19T05:43:30;15.50;12.25;8.50
75960;PMS7003;64644;48.914;2.254;2022-12-19T05:45:55;11.00;11.00;8.00
75960;PMS7003;64644;48.914;2.254;2022-12-19T05:48:20;9.00;9.00;8.00
75960;PMS7003;64644;48.914;2.254;2022-12-19T05:50:47;13.50;12.75;9.00
75960;PMS7003;64644;48.914;2.254;2022-12-19T05:53:13;11.50;10.00;6.50
75960;PMS7003;64644;48.914;2.254;2022-12-19T05:55:39;14.50;12.00;9.00
75960;PMS7003;64644;48.914;2.254;2022-12-19T05:58:04;15.75;14.50;9.75
75960;PMS7003;64644;48.914;2.254;2022-12-19T06:00:30;13.50;13.00;6.75
75960;PMS7003;64644;48.914;2.254;2022-12-19T06:02:55;16.00;15.00;8.50
75960;PMS7003;64644;48.914;2.254;2022-12-19T06:05:21;15.25;14.00;8.50
75960;PMS7003;64644;48.914;2.254;2022-12-19T06:07:46;12.25;12.25;8.00
75960;PMS7003;64644;48.914;2.254;2022-12-19T06:10:12;15.25;13.50;8.50
75960;PMS7003;64644;48.914;2.254;2022-12-19T06:12:37;18.00;14.00;8.25
75960;PMS7003;64644;48.914;2.254;2022-12-19T06:15:03;16.25;16.00;9.00
75960;PMS7003;64644;48.914;2.254;2022-12-19T06:17:28;18.25;14.25;9.50
75960;PMS7003;64644;48.914;2.254;2022-12-19T06:19:54;13.25;11.25;8.00
75960;PMS7003;64644;48.914;2.254;2022-12-19T06:22:19;12.50;10.50;7.75
75960;PMS7003;64644;48.914;2.254;2022-12-19T06:24:44;11.75;11.75;8.25
75960;PMS7003;64644;48.914;2.254;2022-12-19T06:27:10;15.00;12.75;7.50
75960;PMS7003;64644;48.914;2.254;2022-12-19T06:29:35;12.75;12.75;9.00
75960;PMS7003;64644;48.914;2.254;2022-12-19T06:32:00;16.25;10.75;8.00
75960;PMS7003;64644;48.914;2.254;2022-12-19T06:34:26;12.00;12.00;8.25
75960;PMS7003;64644;48.914;2.254;2022-12-19T06:36:51;14.50;11.50;8.00
75960;PMS7003;64644;48.914;2.254;2022-12-19T06:39:17;15.00;10.50;6.25
75960;PMS7003;64644;48.914;2.254;2022-12-19T06:41:42;13.50;11.50;7.00
75960;PMS7003;64644;48.914;2.254;2022-12-19T06:44:26;13.75;11.00;7.75
75960;PMS7003;64644;48.914;2.254;2022-12-19T06:46:52;8.25;8.00;6.25
75960;PMS7003;64644;48.914;2.254;2022-12-19T06:49:17;11.00;8.50;6.25
75960;PMS7003;64644;48.914;2.254;2022-12-19T06:51:43;12.50;12.00;8.00
75960;PMS7003;64644;48.914;2.254;2022-12-19T06:54:12;10.00;9.50;7.00
75960;PMS7003;64644;48.914;2.254;2022-12-19T06:56:38;15.75;12.00;8.00
75960;PMS7003;64644;48.914;2.254;2022-12-19T06:59:05;12.75;10.00;8.00
75960;PMS7003;64644;48.914;2.254;2022-12-19T07:03:57;9.67;8.33;5.33
75960;PMS7003;64644;48.914;2.254;2022-12-19T07:06:23;13.00;12.25;8.00
75960;PMS7003;64644;48.914;2.254;2022-12-19T07:08:48;8.50;8.50;6.25
75960;PMS7003;64644;48.914;2.254;2022-12-19T07:11:14;9.00;7.50;6.25
75960;PMS7003;64644;48.914;2.254;2022-12-19T07:13:39;9.75;8.25;6.00
75960;PMS7003;64644;48.914;2.254;2022-12-19T07:16:05;10.00;10.00;8.00
75960;PMS7003;64644;48.914;2.254;2022-12-19T07:18:31;13.00;11.50;8.00
75960;PMS7003;64644;48.914;2.254;2022-12-19T07:21:00;11.00;11.00;8.00
75960;PMS7003;64644;48.914;2.254;2022-12-19T07:23:26;10.75;10.75;6.25
75960;PMS7003;64644;48.914;2.254;2022-12-19T07:25:53;11.75;10.25;8.00
75960;PMS7003;64644;48.914;2.254;2022-12-19T07:28:18;9.00;9.00;8.00
75960;PMS7003;64644;48.914;2.254;2022-12-19T07:30:44;9.75;8.00;6.50
75960;PMS7003;64644;48.914;2.254;2022-12-19T07:33:09;15.75;13.25;8.00
75960;PMS7003;64644;48.914;2.254;2022-12-19T07:35:34;12.50;12.50;9.00
75960;PMS7003;64644;48.914;2.254;2022-12-19T07:38:03;12.25;9.50;8.25
75960;PMS7003;64644;48.914;2.254;2022-12-19T07:40:30;14.00;12.00;8.00
75960;PMS7003;64644;48.914;2.254;2022-12-19T07:42:57;9.00;6.50;5.75
75960;PMS7003;64644;48.914;2.254;2022-12-19T07:45:24;11.00;11.00;8.75
75960;PMS7003;64644;48.914;2.254;2022-12-19T07:47:49;8.25;8.25;6.00
75960;PMS7003;64644;48.914;2.254;2022-12-19T07:50:15;14.75;10.00;6.50
75960;PMS7003;64644;48.914;2.254;2022-12-19T07:52:40;11.25;9.00;8.00
75960;PMS7003;64644;48.914;2.254;2022-12-19T07:55:08;13.25;9.50;6.50
75960;PMS7003;64644;48.914;2.254;2022-12-19T07:57:33;11.50;11.50;8.00
75960;PMS7003;64644;48.914;2.254;2022-12-19T07:59:59;11.50;10.75;7.50
75960;PMS7003;64644;48.914;2.254;2022-12-19T08:02:24;13.50;10.00;8.00
75960;PMS7003;64644;48.914;2.254;2022-12-19T08:04:50;10.50;10.00;5.75
75960;PMS7003;64644;48.914;2.254;2022-12-19T08:07:15;12.00;9.25;6.50
75960;PMS7003;64644;48.914;2.254;2022-12-19T08:09:41;8.75;8.25;6.00
75960;PMS7003;64644;48.914;2.254;2022-12-19T08:12:06;10.50;10.50;6.00
75960;PMS7003;64644;48.914;2.254;2022-12-19T08:14:31;11.25;9.75;7.50
75960;PMS7003;64644;48.914;2.254;2022-12-19T08:16:57;9.25;8.75;5.25
75960;PMS7003;64644;48.914;2.254;2022-12-19T08:19:22;9.50;9.00;7.50
75960;PMS7003;64644;48.914;2.254;2022-12-19T08:21:47;8.25;8.00;5.00
75960;PMS7003;64644;48.914;2.254;2022-12-19T08:24:13;13.50;13.00;9.25
75960;PMS7003;64644;48.914;2.254;2022-12-19T08:26:38;12.25;9.50;7.00
75960;PMS7003;64644;48.914;2.254;2022-12-19T08:29:05;9.00;8.00;6.00
75960;PMS7003;64644;48.914;2.254;2022-12-19T08:31:30;12.00;11.50;7.50
75960;PMS7003;64644;48.914;2.254;2022-12-19T08:33:56;12.00;12.00;8.50
75960;PMS7003;64644;48.914;2.254;2022-12-19T08:36:24;9.75;9.00;6.00
75960;PMS7003;64644;48.914;2.254;2022-12-19T08:38:49;9.25;9.25;8.00
75960;PMS7003;64644;48.914;2.254;2022-12-19T08:41:16;12.75;9.50;8.00
75960;PMS7003;64644;48.914;2.254;2022-12-19T08:43:42;9.00;9.00;6.50
75960;PMS7003;64644;48.914;2.254;2022-12-19T08:46:11;8.75;8.75;6.50
75960;PMS7003;64644;48.914;2.254;2022-12-19T08:48:37;15.25;10.25;6.50
75960;PMS7003;64644;48.914;2.254;2022-12-19T08:51:03;9.00;7.50;6.00
75960;PMS7003;64644;48.914;2.254;2022-12-19T08:53:32;11.50;11.00;8.00
75960;PMS7003;64644;48.914;2.254;2022-12-19T08:56:12;8.75;8.75;7.00
75960;PMS7003;64644;48.914;2.254;2022-12-19T08:58:43;12.25;9.75;6.00
75960;PMS7003;64644;48.914;2.254;2022-12-19T09:01:18;9.00;9.00;6.00
75960;PMS7003;64644;48.914;2.254;2022-12-19T09:03:44;15.00;13.25;9.25
75960;PMS7003;64644;48.914;2.254;2022-12-19T09:06:11;8.50;8.25;5.75
75960;PMS7003;64644;48.914;2.254;2022-12-19T09:08:38;10.00;10.00;8.00
75960;PMS7003;64644;48.914;2.254;2022-12-19T09:11:12;9.25;8.50;7.00
75960;PMS7003;64644;48.914;2.254;2022-12-19T09:13:40;8.00;8.00;6.00
75960;PMS7003;64644;48.914;2.254;2022-12-19T09:16:07;9.00;8.50;5.75
75960;PMS7003;64644;48.914;2.254;2022-12-19T09:18:35;11.75;10.25;7.00
75960;PMS7003;64644;48.914;2.254;2022-12-19T09:21:01;11.25;9.00;8.00
75960;PMS7003;64644;48.914;2.254;2022-12-19T09:23:27;12.00;9.00;8.00
75960;PMS7003;64644;48.914;2.254;2022-12-19T09:25:53;7.75;7.75;5.50
75960;PMS7003;64644;48.914;2.254;2022-12-19T09:28:20;15.50;12.00;9.00
75960;PMS7003;64644;48.914;2.254;2022-12-19T09:30:53;15.00;12.00;6.50
75960;PMS7003;64644;48.914;2.254;2022-12-19T09:33:20;9.00;9.00;6.00
75960;PMS7003;64644;48.914;2.254;2022-12-19T09:35:49;9.50;9.50;6.75
75960;PMS7003;64644;48.914;2.254;2022-12-19T09:38:19;10.50;8.75;5.75
75960;PMS7003;64644;48.914;2.254;2022-12-19T09:43:43;12.00;12.00;9.25
75960;PMS7003;64644;48.914;2.254;2022-12-19T09:46:44;11.75;11.75;9.00
75960;PMS7003;64644;48.914;2.254;2022-12-19T09:49:38;12.25;9.25;7.50
75960;PMS7003;64644;48.914;2.254;2022-12-19T09:52:09;9.50;9.50;6.00
75960;PMS7003;64644;48.914;2.254;2022-12-19T09:54:53;9.25;9.00;6.25
75960;PMS7003;64644;48.914;2.254;2022-12-19T09:57:29;12.25;10.25;7.25
75960;PMS7003;64644;48.914;2.254;2022-12-19T10:05:32;9.50;9.50;6.50
75960;PMS7003;64644;48.914;2.254;2022-12-19T10:08:15;12.75;10.25;7.25
75960;PMS7003;64644;48.914;2.254;2022-12-19T10:19:00;10.00;10.00;7.50
75960;PMS7003;64644;48.914;2.254;2022-12-19T10:21:36;12.75;12.75;9.00
75960;PMS7003;64644;48.914;2.254;2022-12-19T10:27:14;12.50;9.75;8.00
75960;PMS7003;64644;48.914;2.254;2022-12-19T10:35:32;11.25;11.25;9.00
75960;PMS7003;64644;48.914;2.254;2022-12-19T10:40:46;13.75;10.50;9.00
75960;PMS7003;64644;48.914;2.254;2022-12-19T10:46:17;10.50;10.50;8.50
75960;PMS7003;64644;48.914;2.254;2022-12-19T10:48:52;10.00;7.25;6.00
75960;PMS7003;64644;48.914;2.254;2022-12-19T10:51:22;13.50;10.50;6.75
75960;PMS7003;64644;48.914;2.254;2022-12-19T10:53:52;9.25;9.25;6.25
75960;PMS7003;64644;48.914;2.254;2022-12-19T10:56:23;9.75;9.75;7.00
75960;PMS7003;64644;48.914;2.254;2022-12-19T10:58:51;9.75;8.50;6.00
75960;PMS7003;64644;48.914;2.254;2022-12-19T11:01:25;11.25;10.00;6.75
75960;PMS7003;64644;48.914;2.254;2022-12-19T11:03:51;8.50;8.50;6.25
75960;PMS7003;64644;48.914;2.254;2022-12-19T11:09:15;11.00;10.25;9.75
75960;PMS7003;64644;48.914;2.254;2022-12-19T11:11:41;14.00;10.50;6.00
75960;PMS7003;64644;48.914;2.254;2022-12-19T11:14:20;9.25;7.25;6.00
75960;PMS7003;64644;48.914;2.254;2022-12-19T11:16:47;9.25;8.50;6.00
75960;PMS7003;64644;48.914;2.254;2022-12-19T11:19:20;24.00;16.75;10.75
75960;PMS7003;64644;48.914;2.254;2022-12-19T11:21:46;10.00;7.50;6.00
75960;PMS7003;64644;48.914;2.254;2022-12-19T11:24:16;8.50;8.00;5.00
75960;PMS7003;64644;48.914;2.254;2022-12-19T11:26:49;6.75;6.75;5.75
75960;PMS7003;64644;48.914;2.254;2022-12-19T11:32:07;6.00;6.00;5.00
75960;PMS7003;64644;48.914;2.254;2022-12-19T11:35:19;9.75;6.00;5.00
75960;PMS7003;64644;48.914;2.254;2022-12-19T11:37:47;6.50;5.50;3.00
75960;PMS7003;64644;48.914;2.254;2022-12-19T11:40:38;5.75;5.00;3.00
75960;PMS7003;64644;48.914;2.254;2022-12-19T11:46:32;7.00;6.00;5.25
75960;PMS7003;64644;48.914;2.254;2022-12-19T11:49:06;7.00;6.50;5.50
75960;PMS7003;64644;48.914;2.254;2022-12-19T11:51:42;10.25;7.00;4.00
75960;PMS7003;64644;48.914;2.254;2022-12-19T11:57:22;10.25;7.00;5.00
75960;PMS7003;64644;48.914;2.254;2022-12-19T11:59:49;6.75;5.25;4.50
75960;PMS7003;64644;48.914;2.254;2022-12-19T12:05:04;3.00;3.00;2.25
75960;PMS7003;64644;48.914;2.254;2022-12-19T12:07:40;3.00;3.00;2.00
75960;PMS7003;64644;48.914;2.254;2022-12-19T12:18:14;5.00;5.00;4.50
75960;PMS7003;64644;48.914;2.254;2022-12-19T12:23:45;2.75;2.75;2.00
75960;PMS7003;64644;48.914;2.254;2022-12-19T12:26:42;2.00;2.00;1.50
75960;PMS7003;64644;48.914;2.254;2022-12-19T12:29:32;5.00;3.50;3.00
75960;PMS7003;64644;48.914;2.254;2022-12-19T12:35:35;5.75;5.25;3.00
75960;PMS7003;64644;48.914;2.254;2022-12-19T12:41:08;3.00;3.00;2.75
75960;PMS7003;64644;48.914;2.254;2022-12-19T12:44:15;4.50;3.00;2.00
75960;PMS7003;64644;48.914;2.254;2022-12-19T12:46:48;5.25;4.00;2.25
75960;PMS7003;64644;48.914;2.254;2022-12-19T12:49:49;3.50;3.50;3.00
75960;PMS7003;64644;48.914;2.254;2022-12-19T12:54:57;4.75;4.50;2.50
75960;PMS7003;64644;48.914;2.254;2022-12-19T13:02:50;4.00;4.00;2.25
75960;PMS7003;64644;48.914;2.254;2022-12-19T13:05:23;5.00;3.00;2.50
75960;PMS7003;64644;48.914;2.254;2022-12-19T13:07:55;3.50;3.50;2.75
75960;PMS7003;64644;48.914;2.254;2022-12-19T13:10:27;5.50;5.50;4.50
75960;PMS7003;64644;48.914;2.254;2022-12-19T13:13:05;4.50;4.00;2.50
75960;PMS7003;64644;48.914;2.254;2022-12-19T13:15:37;6.00;6.00;3.00
75960;PMS7003;64644;48.914;2.254;2022-12-19T13:20:59;3.00;3.00;2.00
75960;PMS7003;64644;48.914;2.254;2022-12-19T13:26:01;3.00;2.75;2.00
75960;PMS7003;64644;48.914;2.254;2022-12-19T13:39:16;5.25;3.75;3.75
75960;PMS7003;64644;48.914;2.254;2022-12-19T13:41:51;5.00;3.00;2.75
75960;PMS7003;64644;48.914;2.254;2022-12-19T13:45:04;3.00;3.00;2.00
75960;PMS7003;64644;48.914;2.254;2022-12-19T13:47:34;5.00;5.00;3.00
75960;PMS7003;64644;48.914;2.254;2022-12-19T13:50:03;8.75;7.00;5.00
75960;PMS7003;64644;48.914;2.254;2022-12-19T13:52:38;5.00;5.00;3.00
75960;PMS7003;64644;48.914;2.254;2022-12-19T13:55:10;6.00;6.00;3.00
75960;PMS7003;64644;48.914;2.254;2022-12-19T13:57:38;7.25;3.75;3.00
75960;PMS7003;64644;48.914;2.254;2022-12-19T14:00:06;5.00;5.00;3.00
75960;PMS7003;64644;48.914;2.254;2022-12-19T14:02:37;3.00;3.00;3.00
75960;PMS7003;64644;48.914;2.254;2022-12-19T14:05:05;4.25;4.25;3.00
75960;PMS7003;64644;48.914;2.254;2022-12-19T14:07:48;2.75;2.75;2.00
75960;PMS7003;64644;48.914;2.254;2022-12-19T14:10:15;5.00;5.00;3.00
75960;PMS7003;64644;48.914;2.254;2022-12-19T14:12:44;6.00;6.00;5.00
75960;PMS7003;64644;48.914;2.254;2022-12-19T14:15:33;3.00;3.00;2.00
75960;PMS7003;64644;48.914;2.254;2022-12-19T14:18:06;3.50;3.50;2.75
75960;PMS7003;64644;48.914;2.254;2022-12-19T14:21:09;5.50;5.00;2.00
75960;PMS7003;64644;48.914;2.254;2022-12-19T14:23:42;5.00;5.00;3.00
75960;PMS7003;64644;48.914;2.254;2022-12-19T14:28:51;8.50;5.00;3.00
75960;PMS7003;64644;48.914;2.254;2022-12-19T14:31:20;4.25;4.25;3.75
75960;PMS7003;64644;48.914;2.254;2022-12-19T14:33:47;5.00;5.00;3.00
75960;PMS7003;64644;48.914;2.254;2022-12-19T14:36:29;6.50;5.50;4.00
75960;PMS7003;64644;48.914;2.254;2022-12-19T14:38:56;6.00;5.50;3.00
75960;PMS7003;64644;48.914;2.254;2022-12-19T14:44:13;6.25;5.50;3.00
75960;PMS7003;64644;48.914;2.254;2022-12-19T14:46:39;5.00;5.00;2.75
75960;PMS7003;64644;48.914;2.254;2022-12-19T14:51:50;6.75;5.50;5.00
75960;PMS7003;64644;48.914;2.254;2022-12-19T14:54:17;6.50;5.50;3.75
75960;PMS7003;64644;48.914;2.254;2022-12-19T14:56:57;5.75;5.75;3.25
75960;PMS7003;64644;48.914;2.254;2022-12-19T14:59:27;2.00;2.00;1.75
75960;PMS7003;64644;48.914;2.254;2022-12-19T15:04:41;8.00;6.00;5.00
75960;PMS7003;64644;48.914;2.254;2022-12-19T15:07:16;4.50;2.00;2.00
75960;PMS7003;64644;48.914;2.254;2022-12-19T15:09:56;6.00;4.75;2.75
75960;PMS7003;64644;48.914;2.254;2022-12-19T15:12:45;4.00;3.00;2.00
75960;PMS7003;64644;48.914;2.254;2022-12-19T15:15:36;6.75;5.00;3.00
75960;PMS7003;64644;48.914;2.254;2022-12-19T15:18:03;6.00;6.00;3.00
75960;PMS7003;64644;48.914;2.254;2022-12-19T15:20:50;6.00;5.00;3.00
75960;PMS7003;64644;48.914;2.254;2022-12-19T15:23:16;6.25;5.25;3.00
75960;PMS7003;64644;48.914;2.254;2022-12-19T15:25:42;5.25;3.25;3.00
75960;PMS7003;64644;48.914;2.254;2022-12-19T15:28:12;7.25;6.25;3.00
75960;PMS7003;64644;48.914;2.254;2022-12-19T15:30:54;5.50;5.50;4.25
75960;PMS7003;64644;48.914;2.254;2022-12-19T15:33:22;4.50;3.25;2.00
75960;PMS7003;64644;48.914;2.254;2022-12-19T15:35:47;5.00;5.00;3.00
75960;PMS7003;64644;48.914;2.254;2022-12-19T15:38:13;5.00;5.00;4.50
75960;PMS7003;64644;48.914;2.254;2022-12-19T15:40:39;4.75;4.75;2.75
75960;PMS7003;64644;48.914;2.254;2022-12-19T15:43:08;10.00;5.50;2.50
75960;PMS7003;64644;48.914;2.254;2022-12-19T15:45:40;5.50;4.25;3.00
75960;PMS7003;64644;48.914;2.254;2022-12-19T15:48:07;2.25;2.25;1.50
75960;PMS7003;64644;48.914;2.254;2022-12-19T15:50:37;5.00;4.25;3.00
75960;PMS7003;64644;48.914;2.254;2022-12-19T15:53:04;5.75;5.00;3.00
75960;PMS7003;64644;48.914;2.254;2022-12-19T15:55:44;6.00;6.00;3.25
75960;PMS7003;64644;48.914;2.254;2022-12-19T15:58:10;3.00;3.00;2.50
75960;PMS7003;64644;48.914;2.254;2022-12-19T16:00:37;3.25;3.25;2.75
75960;PMS7003;64644;48.914;2.254;2022-12-19T16:03:05;2.25;2.25;2.00
75960;PMS7003;64644;48.914;2.254;2022-12-19T16:05:35;2.75;2.50;2.00
75960;PMS7003;64644;48.914;2.254;2022-12-19T16:08:01;4.25;4.25;4.00
75960;PMS7003;64644;48.914;2.254;2022-12-19T16:10:26;4.75;3.75;2.75
75960;PMS7003;64644;48.914;2.254;2022-12-19T16:12:53;3.00;3.00;2.50
75960;PMS7003;64644;48.914;2.254;2022-12-19T16:17:49;6.50;4.50;3.75
75960;PMS7003;64644;48.914;2.254;2022-12-19T16:20:16;2.75;2.75;2.00
75960;PMS7003;64644;48.914;2.254;2022-12-19T16:22:46;3.00;3.00;2.75
75960;PMS7003;64644;48.914;2.254;2022-12-19T16:25:12;5.00;5.00;3.75
75960;PMS7003;64644;48.914;2.254;2022-12-19T16:27:38;7.00;6.00;5.00
75960;PMS7003;64644;48.914;2.254;2022-12-19T16:30:20;5.50;4.00;2.00
75960;PMS7003;64644;48.914;2.254;2022-12-19T16:32:48;4.25;4.25;2.00
75960;PMS7003;64644;48.914;2.254;2022-12-19T16:35:18;5.50;5.00;2.75
75960;PMS7003;64644;48.914;2.254;2022-12-19T16:37:47;5.50;5.50;3.25
75960;PMS7003;64644;48.914;2.254;2022-12-19T16:40:14;7.50;6.50;4.00
75960;PMS7003;64644;48.914;2.254;2022-12-19T16:42:41;6.00;4.25;3.00
75960;PMS7003;64644;48.914;2.254;2022-12-19T16:45:15;5.50;3.75;2.25
75960;PMS7003;64644;48.914;2.254;2022-12-19T16:47:41;5.00;5.00;4.00
75960;PMS7003;64644;48.914;2.254;2022-12-19T16:50:14;6.00;3.50;2.50
75960;PMS7003;64644;48.914;2.254;2022-12-19T16:52:43;4.50;4.50;3.00